CYMO - Moosonee Airport

Pirep is a free, collaborative database of all public and private airports located within the United States. All pilots are welcome to contribute, edit, and improve any airport they have local knowledge about, no registration required.
Are you familiar with this airport? Help out other pilots by adding your local knowledge.
Uploaded photos will be licensed under a CC BY-SA 4.0 license. Please only upload photos you have the rights to use.
Tags
Public
Undocu­mented
METAR / TAF
Webcam
Edit Tags
Food
Camping
Lodging
Car Rental
Bicycles
Swimming
Golfing
Fishing
Hot Springs
Museum
Flying Clubs
Airpark
Upcoming Events
No upcoming events. Is anything happening here soon?
*
*
*

Where exactly on/near the airport is this event taking place?

Is there a webpage with more information for this event?

Who should be contacted for more information?

What is this event all about?

Repeat every
Description
Transient Parking
Fuel Location
Landing & Tie-down Fees
Crew Car Availability
Flying Clubs
WiFi Access
Airport Statistics
Location: Moosonee, Ontario
Elevation: 30ft
Runway 06/24: 4,000ft
Runway 14/32: 3,500ft
Warning: This airport was imported from a non-authoritative source. It's public/private status may not be accurate.
Access: Open to the public
Current Weather — MVFR
  • Weather data is strictly informational and not for flight planning purposes.
  • METAR
    2024-04-24 08:25:00 EDT
    Ceiling Wind Temperature Dewpoint Weather Visbility
    2,200ft 350° @ 5kt 14°F 3°F N/A 9SM
    Clouds: Broken @ 2,200ft
    Raw: CYMO 241225Z AUTO 35005KT 270V030 9SM BKN022 M10/M16 A3039 RMK SLP294
  • TAF
    2024-04-24 08:00:00 EDT – 2024-04-24 13:00:00 EDT
    Ceiling Wind Weather Visbility
    2,000ft 310° @ 6kt Light snow 5SM
    Clouds: Broken @ 2,000ft
    Raw: TAF CYMO 241140Z 2412/2424 31006KT 5SM -SN BKN020 TEMPO 2412/2417 P6SM NSW SCT020 FM241700 34005KT P6SM SKC BECMG 2421/2423 VRB03KT RMK FCST BASED ON AUTO OBS. NXT FCST BY 241800Z
  • TAF
    2024-04-24 08:00:00 EDT – 2024-04-24 13:00:00 EDT
    Ceiling Wind Weather Visbility
    Sky clear ° @ kt N/A 6SM
    Clouds: Scattered @ 2,000ft
    Raw: TAF CYMO 241140Z 2412/2424 31006KT 5SM -SN BKN020 TEMPO 2412/2417 P6SM NSW SCT020 FM241700 34005KT P6SM SKC BECMG 2421/2423 VRB03KT RMK FCST BASED ON AUTO OBS. NXT FCST BY 241800Z
  • TAF
    2024-04-24 13:00:00 EDT – 2024-04-24 17:00:00 EDT
    Ceiling Wind Weather Visbility
    Sky clear 340° @ 5kt N/A 6SM
    Clouds: @ ft
    Raw: TAF CYMO 241140Z 2412/2424 31006KT 5SM -SN BKN020 TEMPO 2412/2417 P6SM NSW SCT020 FM241700 34005KT P6SM SKC BECMG 2421/2423 VRB03KT RMK FCST BASED ON AUTO OBS. NXT FCST BY 241800Z
  • TAF
    2024-04-24 17:00:00 EDT – 2024-04-24 20:00:00 EDT
    Ceiling Wind Weather Visbility
    Sky clear Variable N/A 6SM
    Clouds: @ ft
    Raw: TAF CYMO 241140Z 2412/2424 31006KT 5SM -SN BKN020 TEMPO 2412/2417 P6SM NSW SCT020 FM241700 34005KT P6SM SKC BECMG 2421/2423 VRB03KT RMK FCST BASED ON AUTO OBS. NXT FCST BY 241800Z
Click/tap to add an annotation marker to the map
Direct links to live image URLs will be displayed inline on this page. URLs to separate webpages will be linked to.
URL:
Direct links to live image URLs will be displayed inline on this page. URLs to separate webpages will be linked to.
URL:
Comments
Leave a comment What was your experience like at this airport?